createdAt,value
2023-05-15T00:01:47.636Z,8.20
2023-05-15T00:04:16.376Z,7.17
2023-05-15T00:06:44.290Z,7.90
2023-05-15T00:09:12.388Z,7.50
2023-05-15T00:11:40.234Z,7.57
2023-05-15T00:14:08.305Z,8.70
2023-05-15T00:16:37.669Z,11.10
2023-05-15T00:19:05.604Z,8.53
2023-05-15T00:21:33.458Z,8.13
2023-05-15T00:24:01.288Z,8.10
2023-05-15T00:26:29.079Z,8.03
2023-05-15T00:28:56.913Z,7.83
2023-05-15T00:31:25.336Z,7.63
2023-05-15T00:33:54.620Z,7.63
2023-05-15T00:36:24.251Z,8.70
2023-05-15T00:38:52.081Z,8.90
2023-05-15T00:41:21.629Z,8.90
2023-05-15T00:43:51.110Z,7.90
2023-05-15T00:46:20.860Z,8.30
2023-05-15T00:48:51.735Z,8.30
2023-05-15T00:51:20.944Z,9.13
2023-05-15T00:53:48.844Z,7.87
2023-05-15T00:56:18.317Z,8.70
2023-05-15T00:58:47.300Z,8.80
2023-05-15T01:01:16.878Z,9.00
2023-05-15T01:03:45.398Z,8.90
2023-05-15T01:06:13.587Z,8.00
2023-05-15T01:08:45.085Z,8.90
2023-05-15T01:11:14.058Z,9.60
2023-05-15T01:13:42.320Z,8.70
2023-05-15T01:16:11.440Z,9.83
2023-05-15T01:18:39.336Z,9.87
2023-05-15T01:21:38.772Z,9.50
2023-05-15T01:24:19.461Z,8.10
2023-05-15T01:27:14.501Z,9.10
2023-05-15T01:29:49.277Z,9.80
2023-05-15T01:32:20.970Z,8.77
2023-05-15T01:34:58.386Z,9.17
2023-05-15T01:37:30.064Z,7.73
2023-05-15T01:40:04.730Z,9.30
2023-05-15T01:42:36.122Z,8.23
2023-05-15T01:45:06.775Z,8.90
2023-05-15T01:47:39.247Z,9.10
2023-05-15T01:50:11.104Z,9.77
2023-05-15T01:52:43.792Z,9.70
2023-05-15T01:55:13.058Z,10.07
2023-05-15T01:57:43.323Z,9.47
2023-05-15T02:00:12.604Z,10.33
2023-05-15T02:02:44.158Z,10.20
2023-05-15T02:05:12.996Z,9.63
2023-05-15T02:07:43.051Z,10.67
2023-05-15T02:10:13.172Z,11.17
2023-05-15T02:12:43.351Z,11.20
2023-05-15T02:15:12.438Z,11.60
2023-05-15T02:17:41.945Z,12.33
2023-05-15T02:20:10.464Z,11.77
2023-05-15T02:22:39.078Z,12.87
2023-05-15T02:25:07.293Z,12.93
2023-05-15T02:27:42.610Z,12.80
2023-05-15T02:30:21.536Z,12.37
2023-05-15T02:32:55.455Z,12.50
2023-05-15T02:35:32.830Z,12.03
2023-05-15T02:38:04.112Z,11.70
2023-05-15T02:40:34.664Z,11.13
2023-05-15T02:43:03.231Z,11.67
2023-05-15T02:45:33.470Z,11.50
2023-05-15T02:48:02.422Z,11.03
2023-05-15T02:50:30.495Z,11.63
2023-05-15T02:53:03.533Z,11.07
2023-05-15T02:55:31.767Z,10.37
2023-05-15T02:58:00.042Z,10.03
2023-05-15T03:00:27.844Z,11.17
2023-05-15T03:02:57.054Z,10.43
2023-05-15T03:05:25.153Z,10.20
2023-05-15T03:07:53.262Z,9.53
2023-05-15T03:10:23.733Z,10.07
2023-05-15T03:12:51.555Z,9.20
2023-05-15T03:15:20.242Z,9.60
2023-05-15T03:17:48.056Z,9.10
2023-05-15T03:20:17.967Z,9.23
2023-05-15T03:22:45.744Z,9.50
2023-05-15T03:25:13.609Z,8.90
2023-05-15T03:27:41.371Z,8.70
2023-05-15T03:30:10.420Z,9.50
2023-05-15T03:32:38.364Z,9.47
2023-05-15T03:35:06.996Z,10.07
2023-05-15T03:37:36.268Z,9.60
2023-05-15T03:40:04.533Z,9.83
2023-05-15T03:42:32.309Z,9.60
2023-05-15T03:45:00.061Z,7.50
2023-05-15T03:47:27.908Z,8.90
2023-05-15T03:49:55.681Z,9.10
2023-05-15T03:52:23.568Z,9.67
2023-05-15T03:54:52.719Z,9.00
2023-05-15T03:57:20.539Z,8.80
2023-05-15T03:59:48.349Z,8.20
2023-05-15T04:02:16.153Z,8.77
2023-05-15T04:04:44.596Z,9.30
2023-05-15T04:07:12.471Z,9.80
2023-05-15T04:09:40.238Z,9.50
2023-05-15T04:12:09.867Z,10.23
2023-05-15T04:14:37.640Z,10.50
2023-05-15T04:17:05.788Z,11.33
2023-05-15T04:19:33.557Z,12.60
2023-05-15T04:22:01.319Z,11.23
2023-05-15T04:24:29.097Z,10.37
2023-05-15T04:26:56.917Z,9.87
2023-05-15T04:29:26.226Z,10.43
2023-05-15T04:31:54.387Z,11.70
2023-05-15T04:34:22.203Z,11.37
2023-05-15T04:36:50.846Z,12.07
2023-05-15T04:39:18.650Z,10.80
2023-05-15T04:41:46.458Z,11.77
2023-05-15T04:44:14.223Z,12.37
2023-05-15T04:46:43.449Z,10.00
2023-05-15T04:49:11.265Z,11.80
2023-05-15T04:51:39.107Z,10.87
2023-05-15T04:54:06.988Z,11.13
2023-05-15T04:56:34.837Z,11.03
2023-05-15T04:59:02.854Z,11.20
2023-05-15T05:01:30.895Z,9.70
2023-05-15T05:04:00.119Z,11.47
2023-05-15T05:06:29.816Z,10.63
2023-05-15T05:08:58.309Z,10.80
2023-05-15T05:11:26.104Z,10.40
2023-05-15T05:13:54.004Z,9.90
2023-05-15T05:16:21.851Z,10.43
2023-05-15T05:18:50.566Z,9.17
2023-05-15T05:21:19.779Z,10.40
2023-05-15T05:23:47.860Z,10.13
2023-05-15T05:26:15.677Z,9.33
2023-05-15T05:28:43.545Z,9.97
2023-05-15T05:31:11.372Z,9.93
2023-05-15T05:33:39.220Z,9.50
2023-05-15T05:36:07.838Z,9.63
2023-05-15T05:38:37.446Z,11.27
2023-05-15T05:41:05.274Z,11.03
2023-05-15T05:43:33.169Z,10.27
2023-05-15T05:46:01.090Z,10.23
2023-05-15T05:48:28.870Z,11.20
2023-05-15T05:50:56.713Z,9.60
2023-05-15T05:53:24.650Z,9.87
2023-05-15T05:55:53.942Z,10.13
2023-05-15T05:58:26.089Z,9.17
2023-05-15T06:00:54.469Z,9.17
2023-05-15T06:03:22.612Z,8.67
2023-05-15T06:05:50.938Z,9.17
2023-05-15T06:08:19.595Z,9.30
2023-05-15T06:10:47.598Z,9.80
2023-05-15T06:13:16.818Z,9.47
2023-05-15T06:15:45.674Z,9.43
2023-05-15T06:18:13.564Z,9.23
2023-05-15T06:20:42.670Z,9.50
2023-05-15T06:23:10.518Z,9.20
2023-05-15T06:25:38.531Z,8.87
2023-05-15T06:28:07.184Z,8.30
2023-05-15T06:30:36.455Z,9.77
2023-05-15T06:33:04.385Z,8.00
2023-05-15T06:35:32.204Z,8.30
2023-05-15T06:38:00.004Z,8.93
2023-05-15T06:40:28.165Z,8.23
2023-05-15T06:42:56.178Z,8.53
2023-05-15T06:45:24.064Z,10.47
2023-05-15T06:47:53.514Z,8.33
2023-05-15T06:50:21.514Z,8.33
2023-05-15T06:52:49.476Z,7.50
2023-05-15T06:55:18.490Z,7.43
2023-05-15T06:57:46.274Z,8.73
2023-05-15T07:00:15.452Z,6.77
2023-05-15T07:02:44.001Z,7.10
2023-05-15T07:05:15.350Z,6.37
2023-05-15T07:07:43.331Z,6.57
2023-05-15T07:10:14.514Z,6.73
2023-05-15T07:12:42.344Z,6.70
2023-05-15T07:15:11.130Z,7.03
2023-05-15T07:17:39.222Z,6.90
2023-05-15T07:20:08.106Z,6.23
2023-05-15T07:22:44.372Z,6.27
2023-05-15T07:25:16.964Z,6.53
2023-05-15T07:27:44.970Z,6.70
2023-05-15T07:30:13.699Z,5.50
2023-05-15T07:32:49.849Z,6.33
2023-05-15T07:35:18.389Z,6.67
2023-05-15T07:37:47.676Z,6.70
2023-05-15T07:40:16.431Z,5.50
2023-05-15T07:42:45.530Z,6.03
2023-05-15T07:45:13.876Z,6.30
2023-05-15T07:47:46.708Z,6.33
2023-05-15T07:50:14.705Z,5.70
2023-05-15T07:52:45.290Z,6.27
2023-05-15T07:55:14.689Z,5.73
2023-05-15T07:57:42.634Z,6.73
2023-05-15T08:00:13.685Z,6.33
2023-05-15T08:02:46.107Z,6.30
2023-05-15T08:05:16.867Z,6.20
2023-05-15T08:07:44.784Z,5.77
2023-05-15T08:10:13.990Z,5.87
2023-05-15T08:12:46.187Z,5.50
2023-05-15T08:15:14.413Z,5.60
2023-05-15T08:17:42.512Z,5.60
2023-05-15T08:20:11.669Z,5.20
2023-05-15T08:22:39.545Z,5.43
2023-05-15T08:25:08.852Z,4.97
2023-05-15T08:27:38.166Z,5.00
2023-05-15T08:30:07.298Z,5.53
2023-05-15T08:32:35.345Z,5.33
2023-05-15T08:35:03.219Z,5.53
2023-05-15T08:37:31.171Z,5.50
2023-05-15T08:39:59.057Z,5.20
2023-05-15T08:42:34.410Z,5.37
2023-05-15T08:45:04.106Z,5.70
2023-05-15T08:47:38.448Z,5.50
2023-05-15T08:50:10.156Z,5.80
2023-05-15T08:52:38.701Z,5.73
2023-05-15T08:55:07.265Z,5.50
2023-05-15T08:57:36.106Z,5.07
2023-05-15T09:00:09.137Z,5.30
2023-05-15T09:02:37.735Z,5.30
2023-05-15T09:05:07.026Z,5.07
2023-05-15T09:07:35.642Z,5.30
2023-05-15T09:10:04.710Z,5.20
2023-05-15T09:12:35.822Z,4.60
2023-05-15T09:15:12.543Z,4.60
2023-05-15T09:17:42.670Z,4.00
2023-05-15T09:20:26.857Z,3.63
2023-05-15T09:22:55.061Z,3.80
2023-05-15T09:25:37.517Z,3.83
2023-05-15T09:28:06.416Z,3.40
2023-05-15T09:30:39.149Z,3.47
2023-05-15T09:33:07.142Z,4.50
2023-05-15T09:35:36.584Z,3.50
2023-05-15T09:38:09.057Z,4.33
2023-05-15T09:40:37.082Z,5.00
2023-05-15T09:43:04.930Z,3.90
2023-05-15T09:45:32.859Z,4.37
2023-05-15T09:48:06.402Z,4.30
2023-05-15T09:50:39.708Z,4.67
2023-05-15T09:53:07.623Z,4.10
2023-05-15T09:55:36.369Z,4.77
2023-05-15T09:58:09.296Z,4.10
2023-05-15T10:00:48.394Z,4.93
2023-05-15T10:03:20.587Z,4.57
2023-05-15T10:05:48.636Z,3.90
2023-05-15T10:08:17.524Z,5.17
2023-05-15T10:10:47.073Z,5.60
2023-05-15T10:13:15.105Z,4.90
2023-05-15T10:15:43.602Z,4.53
2023-05-15T10:18:13.193Z,5.37
2023-05-15T10:20:42.959Z,5.87
2023-05-15T10:23:11.869Z,5.50
2023-05-15T10:25:43.521Z,5.87
2023-05-15T10:28:13.109Z,5.80
2023-05-15T10:30:41.154Z,6.27
2023-05-15T10:33:09.688Z,6.00
2023-05-15T10:35:40.140Z,6.10
2023-05-15T10:38:10.342Z,6.00
2023-05-15T10:40:39.254Z,5.60
2023-05-15T10:43:10.229Z,5.90
2023-05-15T10:45:38.743Z,5.07
2023-05-15T10:48:09.122Z,5.00
2023-05-15T10:50:38.050Z,5.33
2023-05-15T10:53:05.923Z,5.33
2023-05-15T10:55:35.162Z,6.47
2023-05-15T10:58:03.050Z,5.00
2023-05-15T11:00:32.267Z,5.10
2023-05-15T11:03:01.074Z,5.47
2023-05-15T11:05:31.193Z,5.20
2023-05-15T11:08:25.953Z,5.10
2023-05-15T11:10:55.503Z,5.33
2023-05-15T11:13:23.399Z,5.33
2023-05-15T11:15:52.308Z,4.97
2023-05-15T11:18:21.652Z,5.50
2023-05-15T11:21:08.781Z,5.63
2023-05-15T11:23:41.300Z,5.20
2023-05-15T11:26:14.490Z,5.20
2023-05-15T11:28:44.534Z,6.03
2023-05-15T11:31:12.548Z,5.77
2023-05-15T11:33:41.506Z,6.20
2023-05-15T11:36:09.601Z,5.20
2023-05-15T11:38:41.049Z,5.17
2023-05-15T11:41:21.845Z,5.10
2023-05-15T11:43:51.259Z,5.03
2023-05-15T11:46:19.186Z,7.23
2023-05-15T11:48:48.808Z,6.40
2023-05-15T11:51:19.654Z,7.00
2023-05-15T11:53:51.306Z,7.20
2023-05-15T11:56:21.697Z,7.00
2023-05-15T11:58:50.388Z,7.20
2023-05-15T12:01:18.379Z,7.33
2023-05-15T12:03:48.892Z,8.27
2023-05-15T12:06:17.621Z,6.80
2023-05-15T12:08:45.932Z,7.63
2023-05-15T12:11:15.654Z,7.63
2023-05-15T12:13:44.851Z,7.57
2023-05-15T12:16:12.890Z,7.20
2023-05-15T12:18:40.934Z,7.87
2023-05-15T12:21:11.035Z,8.37
2023-05-15T12:23:38.937Z,10.30
2023-05-15T12:26:07.025Z,8.50
2023-05-15T12:28:36.719Z,13.83
2023-05-15T12:31:06.395Z,10.00
2023-05-15T12:33:34.457Z,12.47
2023-05-15T12:36:02.456Z,8.27
2023-05-15T12:38:34.173Z,5.40
2023-05-15T12:41:02.170Z,6.30
2023-05-15T12:43:32.743Z,7.33
2023-05-15T12:46:00.842Z,7.77
2023-05-15T12:48:33.559Z,7.90
2023-05-15T12:51:08.359Z,8.70
2023-05-15T12:53:38.770Z,7.47
2023-05-15T12:56:07.411Z,6.90
2023-05-15T12:58:35.542Z,7.00
2023-05-15T13:01:04.801Z,7.03
2023-05-15T13:03:35.006Z,6.50
2023-05-15T13:06:04.063Z,7.20
2023-05-15T13:08:31.933Z,6.40
2023-05-15T13:11:00.921Z,5.90
2023-05-15T13:13:43.208Z,6.23
2023-05-15T13:16:19.897Z,5.70
2023-05-15T13:18:49.211Z,6.33
2023-05-15T13:21:17.148Z,6.50
2023-05-15T13:23:44.932Z,6.23
2023-05-15T13:26:12.891Z,4.40
2023-05-15T13:28:40.670Z,5.97
2023-05-15T13:31:08.553Z,4.17
2023-05-15T13:33:36.638Z,4.17
2023-05-15T13:36:06.524Z,4.80
2023-05-15T13:38:34.450Z,4.30
2023-05-15T13:41:02.306Z,4.27
2023-05-15T13:43:30.112Z,4.60
2023-05-15T13:45:57.990Z,4.60
2023-05-15T13:48:25.983Z,4.80
2023-05-15T13:50:53.940Z,6.07
2023-05-15T13:53:23.103Z,5.83
2023-05-15T13:55:50.879Z,6.10
2023-05-15T13:58:18.649Z,5.20
2023-05-15T14:00:46.470Z,4.83
2023-05-15T14:03:15.248Z,5.00
2023-05-15T14:05:43.387Z,5.23
2023-05-15T14:08:11.379Z,4.80
2023-05-15T14:10:40.558Z,5.90
2023-05-15T14:13:08.351Z,4.43
2023-05-15T14:15:36.120Z,4.83
2023-05-15T14:18:04.034Z,4.40
2023-05-15T14:20:31.926Z,3.70
2023-05-15T14:22:59.786Z,3.63
2023-05-15T14:25:27.785Z,4.07
2023-05-15T14:27:57.005Z,3.80
2023-05-15T14:30:25.007Z,4.13
2023-05-15T14:32:52.979Z,3.47
2023-05-15T14:35:21.062Z,4.17
2023-05-15T14:37:48.842Z,4.60
2023-05-15T14:40:16.787Z,3.60
2023-05-15T14:42:44.546Z,4.37
2023-05-15T14:45:14.288Z,5.17
2023-05-15T14:47:42.232Z,5.10
2023-05-15T14:50:10.679Z,4.87
2023-05-15T14:52:38.998Z,4.97
2023-05-15T14:55:09.721Z,4.40
2023-05-15T14:57:37.962Z,4.97
2023-05-15T15:00:08.266Z,5.80
2023-05-15T15:02:37.900Z,6.10
2023-05-15T15:05:06.542Z,6.20
2023-05-15T15:08:01.646Z,7.87
2023-05-15T15:10:29.750Z,5.87
2023-05-15T15:12:57.758Z,8.33
2023-05-15T15:15:25.742Z,5.80
2023-05-15T15:17:56.144Z,5.87
2023-05-15T15:20:25.423Z,5.67
2023-05-15T15:22:53.855Z,6.00
2023-05-15T15:25:22.448Z,5.23
2023-05-15T15:27:50.684Z,5.30
2023-05-15T15:30:18.724Z,6.50
2023-05-15T15:32:46.970Z,5.47
2023-05-15T15:35:16.158Z,6.53
2023-05-15T15:37:43.966Z,4.70
2023-05-15T15:40:12.117Z,4.37
2023-05-15T15:42:40.062Z,4.50
2023-05-15T15:45:08.796Z,5.93
2023-05-15T15:47:36.681Z,4.27
2023-05-15T15:50:04.822Z,3.40
2023-05-15T15:52:34.102Z,3.23
2023-05-15T15:55:01.896Z,4.43
2023-05-15T15:57:31.216Z,4.30
2023-05-15T15:59:59.040Z,3.20
2023-05-15T16:02:28.240Z,3.23
2023-05-15T16:04:56.235Z,3.20
2023-05-15T16:07:24.090Z,3.07
2023-05-15T16:10:10.037Z,4.13
2023-05-15T16:12:39.835Z,2.93
2023-05-15T16:15:21.643Z,3.00
2023-05-15T16:17:52.567Z,3.47
2023-05-15T16:20:20.999Z,2.90
2023-05-15T16:22:48.812Z,3.17
2023-05-15T16:25:17.966Z,3.20
2023-05-15T16:27:45.726Z,2.93
2023-05-15T16:30:14.803Z,2.60
2023-05-15T16:32:42.643Z,2.80
2023-05-15T16:35:10.680Z,3.20
2023-05-15T16:37:38.880Z,2.80
2023-05-15T16:40:08.474Z,2.80
2023-05-15T16:42:38.612Z,2.60
2023-05-15T16:45:08.406Z,2.93
2023-05-15T16:47:39.474Z,2.87
2023-05-15T16:50:08.555Z,4.07
2023-05-15T16:52:39.088Z,2.80
2023-05-15T16:55:07.788Z,2.80
2023-05-15T16:57:36.992Z,3.30
2023-05-15T17:00:05.362Z,3.10
2023-05-15T17:02:33.292Z,3.33
2023-05-15T17:05:01.205Z,3.20
2023-05-15T17:07:29.037Z,3.13
2023-05-15T17:09:57.082Z,3.00
2023-05-15T17:12:24.944Z,3.83
2023-05-15T17:14:54.066Z,3.50
2023-05-15T17:17:23.237Z,3.20
2023-05-15T17:19:51.129Z,3.30
2023-05-15T17:22:18.869Z,3.70
2023-05-15T17:24:51.291Z,3.37
2023-05-15T17:27:20.664Z,3.33
2023-05-15T17:29:48.910Z,3.60
2023-05-15T17:32:18.774Z,3.60
2023-05-15T17:34:46.870Z,4.77
2023-05-15T17:37:15.064Z,3.03
2023-05-15T17:39:43.124Z,3.57
2023-05-15T17:42:10.975Z,4.40
2023-05-15T17:44:38.771Z,3.50
2023-05-15T17:47:06.787Z,3.97
2023-05-15T17:49:35.929Z,3.77
2023-05-15T17:52:03.773Z,3.57
2023-05-15T17:54:31.570Z,3.30
2023-05-15T17:56:59.646Z,3.43
2023-05-15T17:59:27.538Z,3.10
2023-05-15T18:01:55.432Z,2.97
2023-05-15T18:04:23.464Z,2.87
2023-05-15T18:06:52.673Z,2.80
2023-05-15T18:09:23.177Z,2.87
2023-05-15T18:11:52.058Z,3.60
2023-05-15T18:14:19.890Z,3.23
2023-05-15T18:16:47.710Z,3.80
2023-05-15T18:19:18.153Z,5.87
2023-05-15T18:21:49.327Z,3.80
2023-05-15T18:24:18.531Z,5.50
2023-05-15T18:26:46.641Z,4.90
2023-05-15T18:29:14.407Z,4.80
2023-05-15T18:31:42.296Z,4.30
2023-05-15T18:34:10.288Z,3.83
2023-05-15T18:36:38.161Z,3.93
2023-05-15T18:39:06.160Z,4.17
2023-05-15T18:41:35.287Z,4.33
2023-05-15T18:44:03.296Z,4.23
2023-05-15T18:46:31.722Z,4.17
2023-05-15T18:48:59.724Z,4.10
2023-05-15T18:51:27.557Z,4.37
2023-05-15T18:53:55.368Z,4.30
2023-05-15T18:56:23.495Z,4.33
2023-05-15T18:58:52.648Z,4.20
2023-05-15T19:01:20.511Z,4.40
2023-05-15T19:03:48.416Z,4.60
2023-05-15T19:06:19.782Z,5.57
2023-05-15T19:08:48.302Z,4.60
2023-05-15T19:11:16.142Z,4.27
2023-05-15T19:13:44.010Z,3.83
2023-05-15T19:16:13.273Z,4.70
2023-05-15T19:18:41.141Z,4.33
2023-05-15T19:21:08.975Z,4.30
2023-05-15T19:23:36.875Z,5.07
2023-05-15T19:26:04.663Z,5.30
2023-05-15T19:28:32.456Z,5.00
2023-05-15T19:31:00.329Z,4.30
2023-05-15T19:33:29.483Z,5.10
2023-05-15T19:35:57.332Z,4.87
2023-05-15T19:38:25.486Z,3.90
2023-05-15T19:40:54.063Z,7.60
2023-05-15T19:43:21.871Z,4.60
2023-05-15T19:45:49.689Z,4.93
2023-05-15T19:48:19.441Z,4.27
2023-05-15T19:50:48.624Z,4.20
2023-05-15T19:53:16.512Z,5.00
2023-05-15T19:55:44.265Z,7.60
2023-05-15T19:58:12.211Z,5.37
2023-05-15T20:00:40.886Z,5.10
2023-05-15T20:03:09.267Z,4.90
2023-05-15T20:05:40.486Z,4.23
2023-05-15T20:08:09.788Z,4.20
2023-05-15T20:10:37.594Z,4.37
2023-05-15T20:13:05.898Z,4.53
2023-05-15T20:15:35.117Z,4.10
2023-05-15T20:18:02.992Z,4.40
2023-05-15T20:20:31.133Z,4.50
2023-05-15T20:22:59.156Z,4.80
2023-05-15T20:25:29.128Z,4.33
2023-05-15T20:27:58.647Z,5.03
2023-05-15T20:30:28.480Z,4.67
2023-05-15T20:32:56.577Z,4.73
2023-05-15T20:35:25.163Z,4.80
2023-05-15T20:37:53.186Z,4.97
2023-05-15T20:40:22.881Z,4.30
2023-05-15T20:42:52.651Z,4.60
2023-05-15T20:45:20.765Z,5.20
2023-05-15T20:47:49.839Z,5.07
2023-05-15T20:50:19.786Z,4.60
2023-05-15T20:52:47.745Z,4.87
2023-05-15T20:55:17.107Z,4.60
2023-05-15T20:57:45.774Z,5.40
2023-05-15T21:00:16.937Z,4.80
2023-05-15T21:02:45.676Z,5.40
2023-05-15T21:05:13.872Z,5.17
2023-05-15T21:07:42.300Z,4.70
2023-05-15T21:10:10.534Z,5.27
2023-05-15T21:12:38.298Z,4.40
2023-05-15T21:15:07.353Z,4.60
2023-05-15T21:17:36.591Z,4.63
2023-05-15T21:20:05.074Z,4.83
2023-05-15T21:22:33.166Z,4.60
2023-05-15T21:25:01.003Z,4.53
2023-05-15T21:27:28.820Z,4.43
2023-05-15T21:29:56.639Z,4.67
2023-05-15T21:32:24.669Z,4.23
2023-05-15T21:34:53.850Z,4.57
2023-05-15T21:37:21.649Z,4.33
2023-05-15T21:39:49.580Z,4.33
2023-05-15T21:42:17.359Z,4.50
2023-05-15T21:44:45.205Z,4.10
2023-05-15T21:47:13.029Z,4.23
2023-05-15T21:49:40.859Z,4.03
2023-05-15T21:52:10.198Z,4.93
2023-05-15T21:54:38.047Z,4.50
2023-05-15T21:57:06.161Z,4.27
2023-05-15T21:59:33.992Z,4.20
2023-05-15T22:02:01.891Z,4.30
2023-05-15T22:04:30.285Z,4.00
2023-05-15T22:06:58.112Z,4.33
2023-05-15T22:09:27.286Z,4.30
2023-05-15T22:11:55.060Z,4.43
2023-05-15T22:14:22.841Z,4.53
2023-05-15T22:16:51.027Z,4.20
2023-05-15T22:19:32.020Z,4.07
2023-05-15T22:22:00.856Z,3.90
2023-05-15T22:24:30.027Z,3.80
2023-05-15T22:27:00.223Z,5.20
2023-05-15T22:29:28.180Z,4.03
2023-05-15T22:31:56.114Z,5.30
2023-05-15T22:34:25.337Z,3.77
2023-05-15T22:39:21.854Z,3.20
2023-05-15T22:41:51.041Z,3.70
2023-05-15T22:44:18.881Z,4.03
2023-05-15T22:46:46.883Z,4.03
2023-05-15T22:49:25.738Z,3.90
2023-05-15T22:51:55.120Z,4.17
2023-05-15T22:54:23.578Z,4.33
2023-05-15T22:56:53.842Z,3.70
2023-05-15T22:59:21.888Z,3.70
2023-05-15T23:01:51.370Z,4.10
2023-05-15T23:04:19.530Z,3.60
2023-05-15T23:06:47.531Z,5.13
2023-05-15T23:09:15.347Z,3.80
2023-05-15T23:11:43.244Z,4.83
2023-05-15T23:14:14.036Z,3.60
2023-05-15T23:16:41.828Z,3.70
2023-05-15T23:19:10.089Z,3.90
2023-05-15T23:21:38.035Z,5.00
2023-05-15T23:24:06.409Z,3.73
2023-05-15T23:26:34.240Z,3.97
2023-05-15T23:29:02.064Z,4.20
2023-05-15T23:31:32.720Z,3.70
2023-05-15T23:34:00.691Z,3.90
2023-05-15T23:36:28.523Z,4.00
2023-05-15T23:38:56.300Z,3.70
2023-05-15T23:41:24.125Z,3.50
2023-05-15T23:43:52.055Z,4.23
2023-05-15T23:46:19.976Z,3.57
2023-05-15T23:48:49.110Z,4.10
2023-05-15T23:51:16.954Z,3.67
2023-05-15T23:53:44.726Z,4.90
2023-05-15T23:56:12.530Z,3.90
2023-05-15T23:58:40.318Z,3.97
